sensor_id;sensor_type;location;lat;lon;timestamp;P1;durP1;ratioP1;P2;durP2;ratioP2
71771;SDS011;59606;52.138;5.424;2022-12-13T00:00:55;23.15;;;10.15;;
71771;SDS011;59606;52.138;5.424;2022-12-13T00:03:22;27.70;;;11.38;;
71771;SDS011;59606;52.138;5.424;2022-12-13T00:05:48;27.92;;;12.75;;
71771;SDS011;59606;52.138;5.424;2022-12-13T00:08:15;31.20;;;10.83;;
71771;SDS011;59606;52.138;5.424;2022-12-13T00:10:42;24.85;;;10.60;;
71771;SDS011;59606;52.138;5.424;2022-12-13T00:13:08;23.50;;;10.13;;
71771;SDS011;59606;52.138;5.424;2022-12-13T00:15:34;26.45;;;10.27;;
71771;SDS011;59606;52.138;5.424;2022-12-13T00:18:01;25.10;;;10.77;;
71771;SDS011;59606;52.138;5.424;2022-12-13T00:20:27;24.43;;;10.67;;
71771;SDS011;59606;52.138;5.424;2022-12-13T00:22:54;23.80;;;11.77;;
71771;SDS011;59606;52.138;5.424;2022-12-13T00:25:21;23.27;;;9.95;;
71771;SDS011;59606;52.138;5.424;2022-12-13T00:27:47;28.50;;;11.98;;
71771;SDS011;59606;52.138;5.424;2022-12-13T00:30:14;24.75;;;11.15;;
71771;SDS011;59606;52.138;5.424;2022-12-13T00:32:40;22.27;;;10.97;;
71771;SDS011;59606;52.138;5.424;2022-12-13T00:35:07;24.65;;;10.90;;
71771;SDS011;59606;52.138;5.424;2022-12-13T00:37:33;23.95;;;11.10;;
71771;SDS011;59606;52.138;5.424;2022-12-13T00:40:00;26.13;;;10.77;;
71771;SDS011;59606;52.138;5.424;2022-12-13T00:42:26;33.33;;;14.32;;
71771;SDS011;59606;52.138;5.424;2022-12-13T00:44:53;27.00;;;12.03;;
71771;SDS011;59606;52.138;5.424;2022-12-13T00:47:19;25.65;;;10.70;;
71771;SDS011;59606;52.138;5.424;2022-12-13T00:49:47;22.05;;;10.23;;
71771;SDS011;59606;52.138;5.424;2022-12-13T00:52:13;26.55;;;10.23;;
71771;SDS011;59606;52.138;5.424;2022-12-13T00:54:40;25.13;;;10.32;;
71771;SDS011;59606;52.138;5.424;2022-12-13T00:57:06;36.00;;;12.20;;
71771;SDS011;59606;52.138;5.424;2022-12-13T00:59:33;27.67;;;12.07;;
71771;SDS011;59606;52.138;5.424;2022-12-13T01:01:59;27.10;;;11.40;;
71771;SDS011;59606;52.138;5.424;2022-12-13T01:04:26;25.30;;;10.82;;
71771;SDS011;59606;52.138;5.424;2022-12-13T01:06:52;27.50;;;10.98;;
71771;SDS011;59606;52.138;5.424;2022-12-13T01:09:22;24.00;;;9.77;;
71771;SDS011;59606;52.138;5.424;2022-12-13T01:11:58;29.40;;;11.30;;
71771;SDS011;59606;52.138;5.424;2022-12-13T01:14:26;26.85;;;11.32;;
71771;SDS011;59606;52.138;5.424;2022-12-13T01:16:53;22.70;;;10.40;;
71771;SDS011;59606;52.138;5.424;2022-12-13T01:19:23;29.92;;;11.98;;
71771;SDS011;59606;52.138;5.424;2022-12-13T01:21:54;24.93;;;11.00;;
71771;SDS011;59606;52.138;5.424;2022-12-13T01:24:25;29.38;;;11.25;;
71771;SDS011;59606;52.138;5.424;2022-12-13T01:26:51;24.00;;;10.65;;
71771;SDS011;59606;52.138;5.424;2022-12-13T01:29:22;25.63;;;11.18;;
71771;SDS011;59606;52.138;5.424;2022-12-13T01:31:51;23.88;;;10.38;;
71771;SDS011;59606;52.138;5.424;2022-12-13T01:34:19;28.40;;;11.00;;
71771;SDS011;59606;52.138;5.424;2022-12-13T01:36:51;22.38;;;9.32;;
71771;SDS011;59606;52.138;5.424;2022-12-13T01:39:23;22.30;;;10.68;;
71771;SDS011;59606;52.138;5.424;2022-12-13T01:41:52;26.17;;;10.32;;
71771;SDS011;59606;52.138;5.424;2022-12-13T01:47:58;22.07;;;10.27;;
71771;SDS011;59606;52.138;5.424;2022-12-13T01:50:31;22.27;;;10.18;;
71771;SDS011;59606;52.138;5.424;2022-12-13T01:53:01;23.98;;;10.13;;
71771;SDS011;59606;52.138;5.424;2022-12-13T01:55:33;28.15;;;9.77;;
71771;SDS011;59606;52.138;5.424;2022-12-13T01:58:07;23.85;;;8.98;;
71771;SDS011;59606;52.138;5.424;2022-12-13T02:00:34;19.87;;;9.30;;
71771;SDS011;59606;52.138;5.424;2022-12-13T02:03:01;23.63;;;8.65;;
71771;SDS011;59606;52.138;5.424;2022-12-13T02:05:32;20.27;;;9.07;;
71771;SDS011;59606;52.138;5.424;2022-12-13T02:08:02;20.13;;;8.48;;
71771;SDS011;59606;52.138;5.424;2022-12-13T02:10:30;24.58;;;10.10;;
71771;SDS011;59606;52.138;5.424;2022-12-13T02:12:57;20.30;;;9.47;;
71771;SDS011;59606;52.138;5.424;2022-12-13T02:15:24;29.25;;;9.88;;
71771;SDS011;59606;52.138;5.424;2022-12-13T02:18:10;18.52;;;8.75;;
71771;SDS011;59606;52.138;5.424;2022-12-13T02:23:56;27.33;;;9.82;;
71771;SDS011;59606;52.138;5.424;2022-12-13T02:26:43;21.80;;;8.83;;
71771;SDS011;59606;52.138;5.424;2022-12-13T02:32:42;18.33;;;7.82;;
71771;SDS011;59606;52.138;5.424;2022-12-13T02:40:53;13.93;;;6.03;;
71771;SDS011;59606;52.138;5.424;2022-12-13T02:43:30;14.68;;;7.15;;
71771;SDS011;59606;52.138;5.424;2022-12-13T02:46:10;20.63;;;8.75;;
71771;SDS011;59606;52.138;5.424;2022-12-13T02:48:38;13.90;;;7.57;;
71771;SDS011;59606;52.138;5.424;2022-12-13T02:51:08;18.88;;;8.73;;
71771;SDS011;59606;52.138;5.424;2022-12-13T02:53:37;19.13;;;8.57;;
71771;SDS011;59606;52.138;5.424;2022-12-13T02:56:06;16.98;;;8.93;;
71771;SDS011;59606;52.138;5.424;2022-12-13T02:58:33;18.45;;;7.80;;
71771;SDS011;59606;52.138;5.424;2022-12-13T03:01:19;17.40;;;7.95;;
71771;SDS011;59606;52.138;5.424;2022-12-13T03:12:28;23.38;;;8.35;;
71771;SDS011;59606;52.138;5.424;2022-12-13T03:18:07;15.52;;;7.00;;
71771;SDS011;59606;52.138;5.424;2022-12-13T03:20:51;14.37;;;7.00;;
71771;SDS011;59606;52.138;5.424;2022-12-13T03:23:20;16.50;;;7.93;;
71771;SDS011;59606;52.138;5.424;2022-12-13T03:25:49;16.75;;;7.72;;
71771;SDS011;59606;52.138;5.424;2022-12-13T03:28:19;22.98;;;7.63;;
71771;SDS011;59606;52.138;5.424;2022-12-13T03:30:45;23.58;;;9.95;;
71771;SDS011;59606;52.138;5.424;2022-12-13T03:33:12;24.93;;;7.10;;
71771;SDS011;59606;52.138;5.424;2022-12-13T03:35:39;19.85;;;8.23;;
71771;SDS011;59606;52.138;5.424;2022-12-13T03:38:11;16.55;;;8.35;;
71771;SDS011;59606;52.138;5.424;2022-12-13T03:40:47;23.15;;;8.63;;
71771;SDS011;59606;52.138;5.424;2022-12-13T03:43:26;21.90;;;7.97;;
71771;SDS011;59606;52.138;5.424;2022-12-13T03:45:53;17.97;;;6.57;;
71771;SDS011;59606;52.138;5.424;2022-12-13T03:48:21;23.52;;;8.45;;
71771;SDS011;59606;52.138;5.424;2022-12-13T03:50:49;19.73;;;9.07;;
71771;SDS011;59606;52.138;5.424;2022-12-13T03:53:17;15.25;;;7.70;;
71771;SDS011;59606;52.138;5.424;2022-12-13T03:55:59;20.65;;;8.40;;
71771;SDS011;59606;52.138;5.424;2022-12-13T03:58:27;19.83;;;7.90;;
71771;SDS011;59606;52.138;5.424;2022-12-13T04:01:06;14.90;;;7.32;;
71771;SDS011;59606;52.138;5.424;2022-12-13T04:03:35;18.92;;;7.47;;
71771;SDS011;59606;52.138;5.424;2022-12-13T04:06:03;20.45;;;7.88;;
71771;SDS011;59606;52.138;5.424;2022-12-13T04:08:30;22.42;;;8.80;;
71771;SDS011;59606;52.138;5.424;2022-12-13T04:10:57;15.50;;;6.47;;
71771;SDS011;59606;52.138;5.424;2022-12-13T04:13:24;15.13;;;7.47;;
71771;SDS011;59606;52.138;5.424;2022-12-13T04:16:00;19.17;;;8.32;;
71771;SDS011;59606;52.138;5.424;2022-12-13T04:18:27;20.15;;;7.47;;
71771;SDS011;59606;52.138;5.424;2022-12-13T04:20:54;19.08;;;7.88;;
71771;SDS011;59606;52.138;5.424;2022-12-13T04:23:20;16.80;;;7.33;;
71771;SDS011;59606;52.138;5.424;2022-12-13T04:25:47;16.40;;;7.00;;
71771;SDS011;59606;52.138;5.424;2022-12-13T04:28:13;17.30;;;7.50;;
71771;SDS011;59606;52.138;5.424;2022-12-13T04:30:47;17.15;;;7.03;;
71771;SDS011;59606;52.138;5.424;2022-12-13T04:33:19;20.35;;;9.43;;
71771;SDS011;59606;52.138;5.424;2022-12-13T04:35:47;16.47;;;8.10;;
71771;SDS011;59606;52.138;5.424;2022-12-13T04:38:14;17.25;;;7.78;;
71771;SDS011;59606;52.138;5.424;2022-12-13T04:40:40;16.08;;;7.07;;
71771;SDS011;59606;52.138;5.424;2022-12-13T04:43:07;23.13;;;8.95;;
71771;SDS011;59606;52.138;5.424;2022-12-13T04:45:34;17.75;;;7.35;;
71771;SDS011;59606;52.138;5.424;2022-12-13T04:48:00;22.57;;;6.80;;
71771;SDS011;59606;52.138;5.424;2022-12-13T04:50:27;19.20;;;8.10;;
71771;SDS011;59606;52.138;5.424;2022-12-13T04:52:53;20.52;;;7.80;;
71771;SDS011;59606;52.138;5.424;2022-12-13T04:55:19;17.35;;;7.32;;
71771;SDS011;59606;52.138;5.424;2022-12-13T04:57:47;19.33;;;9.00;;
71771;SDS011;59606;52.138;5.424;2022-12-13T05:00:13;14.37;;;7.57;;
71771;SDS011;59606;52.138;5.424;2022-12-13T05:02:40;24.60;;;8.35;;
71771;SDS011;59606;52.138;5.424;2022-12-13T05:05:08;19.60;;;8.60;;
71771;SDS011;59606;52.138;5.424;2022-12-13T05:07:35;24.15;;;8.57;;
71771;SDS011;59606;52.138;5.424;2022-12-13T05:10:08;18.50;;;8.27;;
71771;SDS011;59606;52.138;5.424;2022-12-13T05:12:35;22.57;;;9.00;;
71771;SDS011;59606;52.138;5.424;2022-12-13T05:15:01;22.40;;;8.90;;
71771;SDS011;59606;52.138;5.424;2022-12-13T05:17:28;21.42;;;8.57;;
71771;SDS011;59606;52.138;5.424;2022-12-13T05:19:55;16.92;;;8.70;;
71771;SDS011;59606;52.138;5.424;2022-12-13T05:22:21;26.02;;;11.30;;
71771;SDS011;59606;52.138;5.424;2022-12-13T05:24:48;24.30;;;9.40;;
71771;SDS011;59606;52.138;5.424;2022-12-13T05:27:14;19.30;;;8.00;;
71771;SDS011;59606;52.138;5.424;2022-12-13T05:29:55;22.35;;;9.05;;
71771;SDS011;59606;52.138;5.424;2022-12-13T05:32:30;24.15;;;9.73;;
71771;SDS011;59606;52.138;5.424;2022-12-13T05:35:13;23.20;;;8.70;;
71771;SDS011;59606;52.138;5.424;2022-12-13T05:37:52;20.17;;;9.27;;
71771;SDS011;59606;52.138;5.424;2022-12-13T05:40:28;21.30;;;8.00;;
71771;SDS011;59606;52.138;5.424;2022-12-13T05:42:56;20.15;;;9.30;;
71771;SDS011;59606;52.138;5.424;2022-12-13T05:45:26;22.20;;;8.60;;
71771;SDS011;59606;52.138;5.424;2022-12-13T05:47:53;20.70;;;9.30;;
71771;SDS011;59606;52.138;5.424;2022-12-13T05:50:20;19.40;;;9.43;;
71771;SDS011;59606;52.138;5.424;2022-12-13T05:52:46;19.90;;;7.82;;
71771;SDS011;59606;52.138;5.424;2022-12-13T05:55:13;18.67;;;7.82;;
71771;SDS011;59606;52.138;5.424;2022-12-13T05:57:40;21.92;;;7.15;;
71771;SDS011;59606;52.138;5.424;2022-12-13T06:00:15;20.10;;;8.68;;
71771;SDS011;59606;52.138;5.424;2022-12-13T06:02:56;17.40;;;7.33;;
71771;SDS011;59606;52.138;5.424;2022-12-13T06:05:26;18.77;;;8.13;;
71771;SDS011;59606;52.138;5.424;2022-12-13T06:07:54;16.63;;;7.13;;
71771;SDS011;59606;52.138;5.424;2022-12-13T06:10:23;20.35;;;7.35;;
71771;SDS011;59606;52.138;5.424;2022-12-13T06:12:59;19.73;;;7.03;;
71771;SDS011;59606;52.138;5.424;2022-12-13T06:15:28;25.77;;;8.30;;
71771;SDS011;59606;52.138;5.424;2022-12-13T06:18:00;18.38;;;7.32;;
71771;SDS011;59606;52.138;5.424;2022-12-13T06:20:26;17.90;;;7.78;;
71771;SDS011;59606;52.138;5.424;2022-12-13T06:22:53;22.13;;;8.55;;
71771;SDS011;59606;52.138;5.424;2022-12-13T06:25:19;17.77;;;7.60;;
71771;SDS011;59606;52.138;5.424;2022-12-13T06:27:57;15.67;;;6.67;;
71771;SDS011;59606;52.138;5.424;2022-12-13T06:30:26;14.73;;;7.53;;
71771;SDS011;59606;52.138;5.424;2022-12-13T06:32:53;14.20;;;6.82;;
71771;SDS011;59606;52.138;5.424;2022-12-13T06:35:20;19.80;;;8.55;;
71771;SDS011;59606;52.138;5.424;2022-12-13T06:37:54;20.23;;;8.60;;
71771;SDS011;59606;52.138;5.424;2022-12-13T06:40:27;25.27;;;8.67;;
71771;SDS011;59606;52.138;5.424;2022-12-13T06:42:54;22.92;;;8.95;;
71771;SDS011;59606;52.138;5.424;2022-12-13T06:45:20;24.05;;;8.48;;
71771;SDS011;59606;52.138;5.424;2022-12-13T06:47:47;28.33;;;9.95;;
71771;SDS011;59606;52.138;5.424;2022-12-13T06:50:14;23.77;;;10.00;;
71771;SDS011;59606;52.138;5.424;2022-12-13T06:52:40;17.40;;;8.80;;
71771;SDS011;59606;52.138;5.424;2022-12-13T06:55:07;21.15;;;9.25;;
71771;SDS011;59606;52.138;5.424;2022-12-13T06:57:34;18.42;;;8.57;;
71771;SDS011;59606;52.138;5.424;2022-12-13T07:00:00;23.55;;;9.57;;
71771;SDS011;59606;52.138;5.424;2022-12-13T07:02:28;16.02;;;9.32;;
71771;SDS011;59606;52.138;5.424;2022-12-13T07:04:55;20.43;;;10.03;;
71771;SDS011;59606;52.138;5.424;2022-12-13T07:07:23;16.80;;;7.30;;
71771;SDS011;59606;52.138;5.424;2022-12-13T07:09:51;22.83;;;8.73;;
71771;SDS011;59606;52.138;5.424;2022-12-13T07:12:17;20.33;;;9.68;;
71771;SDS011;59606;52.138;5.424;2022-12-13T07:14:46;19.45;;;8.38;;
71771;SDS011;59606;52.138;5.424;2022-12-13T07:17:12;16.67;;;7.53;;
71771;SDS011;59606;52.138;5.424;2022-12-13T07:19:59;21.58;;;8.93;;
71771;SDS011;59606;52.138;5.424;2022-12-13T07:22:26;18.42;;;9.32;;
71771;SDS011;59606;52.138;5.424;2022-12-13T07:24:52;20.73;;;9.90;;
71771;SDS011;59606;52.138;5.424;2022-12-13T07:27:19;21.85;;;9.48;;
71771;SDS011;59606;52.138;5.424;2022-12-13T07:29:45;23.13;;;10.80;;
71771;SDS011;59606;52.138;5.424;2022-12-13T07:32:12;16.48;;;8.15;;
71771;SDS011;59606;52.138;5.424;2022-12-13T07:34:38;18.10;;;7.70;;
71771;SDS011;59606;52.138;5.424;2022-12-13T07:37:04;20.27;;;8.57;;
71771;SDS011;59606;52.138;5.424;2022-12-13T07:39:31;21.02;;;9.63;;
71771;SDS011;59606;52.138;5.424;2022-12-13T07:41:58;13.73;;;8.20;;
71771;SDS011;59606;52.138;5.424;2022-12-13T07:44:24;18.52;;;8.98;;
71771;SDS011;59606;52.138;5.424;2022-12-13T07:46:52;22.38;;;8.68;;
71771;SDS011;59606;52.138;5.424;2022-12-13T07:49:18;27.10;;;10.48;;
71771;SDS011;59606;52.138;5.424;2022-12-13T07:51:45;21.33;;;8.98;;
71771;SDS011;59606;52.138;5.424;2022-12-13T07:54:12;25.10;;;7.87;;
71771;SDS011;59606;52.138;5.424;2022-12-13T07:56:38;18.63;;;8.10;;
71771;SDS011;59606;52.138;5.424;2022-12-13T07:59:05;21.48;;;8.00;;
71771;SDS011;59606;52.138;5.424;2022-12-13T08:01:31;22.38;;;8.60;;
71771;SDS011;59606;52.138;5.424;2022-12-13T08:04:02;15.90;;;8.43;;
71771;SDS011;59606;52.138;5.424;2022-12-13T08:06:33;17.53;;;8.50;;
71771;SDS011;59606;52.138;5.424;2022-12-13T08:09:01;17.05;;;8.13;;
71771;SDS011;59606;52.138;5.424;2022-12-13T08:11:28;19.77;;;8.85;;
71771;SDS011;59606;52.138;5.424;2022-12-13T08:13:54;16.85;;;7.50;;
71771;SDS011;59606;52.138;5.424;2022-12-13T08:16:21;18.90;;;8.10;;
71771;SDS011;59606;52.138;5.424;2022-12-13T08:18:53;17.40;;;7.20;;
71771;SDS011;59606;52.138;5.424;2022-12-13T08:21:32;19.05;;;8.10;;
71771;SDS011;59606;52.138;5.424;2022-12-13T08:24:21;19.67;;;8.32;;
71771;SDS011;59606;52.138;5.424;2022-12-13T08:26:51;15.93;;;7.78;;
71771;SDS011;59606;52.138;5.424;2022-12-13T08:29:17;21.23;;;8.20;;
71771;SDS011;59606;52.138;5.424;2022-12-13T08:32:00;22.17;;;9.23;;
71771;SDS011;59606;52.138;5.424;2022-12-13T08:34:31;17.98;;;7.85;;
71771;SDS011;59606;52.138;5.424;2022-12-13T08:36:57;17.05;;;8.52;;
71771;SDS011;59606;52.138;5.424;2022-12-13T08:39:28;22.10;;;10.95;;
71771;SDS011;59606;52.138;5.424;2022-12-13T08:42:00;21.42;;;11.32;;
71771;SDS011;59606;52.138;5.424;2022-12-13T08:44:47;28.67;;;10.60;;
71771;SDS011;59606;52.138;5.424;2022-12-13T08:47:15;29.20;;;12.57;;
71771;SDS011;59606;52.138;5.424;2022-12-13T08:49:53;29.55;;;12.13;;
71771;SDS011;59606;52.138;5.424;2022-12-13T08:52:29;29.27;;;12.25;;
71771;SDS011;59606;52.138;5.424;2022-12-13T08:55:08;29.15;;;13.20;;
71771;SDS011;59606;52.138;5.424;2022-12-13T08:57:36;32.00;;;13.03;;
71771;SDS011;59606;52.138;5.424;2022-12-13T09:00:04;26.40;;;11.65;;
71771;SDS011;59606;52.138;5.424;2022-12-13T09:02:33;28.38;;;12.80;;
71771;SDS011;59606;52.138;5.424;2022-12-13T09:05:03;32.53;;;13.38;;
71771;SDS011;59606;52.138;5.424;2022-12-13T09:07:32;25.17;;;12.00;;
71771;SDS011;59606;52.138;5.424;2022-12-13T09:10:01;26.47;;;12.90;;
71771;SDS011;59606;52.138;5.424;2022-12-13T09:12:49;30.95;;;12.07;;
71771;SDS011;59606;52.138;5.424;2022-12-13T09:15:16;26.15;;;11.88;;
71771;SDS011;59606;52.138;5.424;2022-12-13T09:17:48;28.65;;;13.48;;
71771;SDS011;59606;52.138;5.424;2022-12-13T09:20:18;27.17;;;11.15;;
71771;SDS011;59606;52.138;5.424;2022-12-13T09:22:55;28.23;;;12.20;;
71771;SDS011;59606;52.138;5.424;2022-12-13T09:25:28;30.02;;;10.88;;
71771;SDS011;59606;52.138;5.424;2022-12-13T09:28:03;27.27;;;13.20;;
71771;SDS011;59606;52.138;5.424;2022-12-13T09:30:32;22.52;;;11.57;;
71771;SDS011;59606;52.138;5.424;2022-12-13T09:32:58;30.23;;;11.60;;
71771;SDS011;59606;52.138;5.424;2022-12-13T09:35:43;27.63;;;11.50;;
71771;SDS011;59606;52.138;5.424;2022-12-13T09:38:10;30.40;;;13.45;;
71771;SDS011;59606;52.138;5.424;2022-12-13T09:40:37;24.45;;;12.00;;
71771;SDS011;59606;52.138;5.424;2022-12-13T09:43:04;30.35;;;13.27;;
71771;SDS011;59606;52.138;5.424;2022-12-13T09:48:09;25.50;;;13.23;;
71771;SDS011;59606;52.138;5.424;2022-12-13T09:50:48;28.05;;;12.98;;
71771;SDS011;59606;52.138;5.424;2022-12-13T09:53:35;24.88;;;11.88;;
71771;SDS011;59606;52.138;5.424;2022-12-13T09:56:03;23.88;;;10.85;;
71771;SDS011;59606;52.138;5.424;2022-12-13T09:58:36;23.90;;;11.07;;
71771;SDS011;59606;52.138;5.424;2022-12-13T10:01:03;33.50;;;12.00;;
71771;SDS011;59606;52.138;5.424;2022-12-13T10:03:31;26.02;;;10.60;;
71771;SDS011;59606;52.138;5.424;2022-12-13T10:06:13;39.17;;;13.75;;
71771;SDS011;59606;52.138;5.424;2022-12-13T10:08:50;31.33;;;12.32;;
71771;SDS011;59606;52.138;5.424;2022-12-13T10:11:23;31.50;;;14.70;;
71771;SDS011;59606;52.138;5.424;2022-12-13T10:14:08;29.57;;;12.40;;
71771;SDS011;59606;52.138;5.424;2022-12-13T10:16:51;32.40;;;12.32;;
71771;SDS011;59606;52.138;5.424;2022-12-13T10:21:55;36.05;;;14.38;;
71771;SDS011;59606;52.138;5.424;2022-12-13T10:24:29;35.30;;;14.43;;
71771;SDS011;59606;52.138;5.424;2022-12-13T10:27:13;35.03;;;13.47;;
71771;SDS011;59606;52.138;5.424;2022-12-13T10:29:58;34.33;;;13.13;;
71771;SDS011;59606;52.138;5.424;2022-12-13T10:32:25;33.25;;;14.07;;
71771;SDS011;59606;52.138;5.424;2022-12-13T10:34:52;30.52;;;13.57;;
71771;SDS011;59606;52.138;5.424;2022-12-13T10:39:47;27.77;;;12.60;;
71771;SDS011;59606;52.138;5.424;2022-12-13T10:42:15;31.98;;;12.73;;
71771;SDS011;59606;52.138;5.424;2022-12-13T10:47:40;30.25;;;12.10;;
71771;SDS011;59606;52.138;5.424;2022-12-13T10:50:20;25.60;;;11.32;;
71771;SDS011;59606;52.138;5.424;2022-12-13T10:52:49;31.63;;;13.20;;
71771;SDS011;59606;52.138;5.424;2022-12-13T10:55:21;34.75;;;12.70;;
71771;SDS011;59606;52.138;5.424;2022-12-13T10:58:01;33.10;;;13.48;;
71771;SDS011;59606;52.138;5.424;2022-12-13T11:00:33;26.35;;;11.10;;
71771;SDS011;59606;52.138;5.424;2022-12-13T11:03:06;30.23;;;12.82;;
71771;SDS011;59606;52.138;5.424;2022-12-13T11:05:35;29.77;;;10.93;;
71771;SDS011;59606;52.138;5.424;2022-12-13T11:13:30;37.05;;;13.27;;
71771;SDS011;59606;52.138;5.424;2022-12-13T11:16:02;32.38;;;13.32;;
71771;SDS011;59606;52.138;5.424;2022-12-13T11:18:34;34.23;;;13.90;;
71771;SDS011;59606;52.138;5.424;2022-12-13T11:21:02;34.30;;;13.15;;
71771;SDS011;59606;52.138;5.424;2022-12-13T11:23:34;29.83;;;11.77;;
71771;SDS011;59606;52.138;5.424;2022-12-13T11:26:06;34.80;;;13.70;;
71771;SDS011;59606;52.138;5.424;2022-12-13T11:31:17;28.40;;;11.17;;
71771;SDS011;59606;52.138;5.424;2022-12-13T11:33:55;27.23;;;11.20;;
71771;SDS011;59606;52.138;5.424;2022-12-13T11:36:46;25.27;;;10.90;;
71771;SDS011;59606;52.138;5.424;2022-12-13T11:45:26;33.70;;;11.37;;
71771;SDS011;59606;52.138;5.424;2022-12-13T11:50:39;28.92;;;11.68;;
71771;SDS011;59606;52.138;5.424;2022-12-13T12:02:04;25.85;;;11.30;;
71771;SDS011;59606;52.138;5.424;2022-12-13T12:04:49;27.08;;;12.20;;
71771;SDS011;59606;52.138;5.424;2022-12-13T12:07:36;32.78;;;12.43;;
71771;SDS011;59606;52.138;5.424;2022-12-13T12:13:17;26.67;;;10.60;;
71771;SDS011;59606;52.138;5.424;2022-12-13T12:16:05;30.33;;;11.15;;
71771;SDS011;59606;52.138;5.424;2022-12-13T12:18:49;23.58;;;9.77;;
71771;SDS011;59606;52.138;5.424;2022-12-13T12:40:37;35.73;;;12.43;;
71771;SDS011;59606;52.138;5.424;2022-12-13T12:43:41;36.88;;;11.77;;
71771;SDS011;59606;52.138;5.424;2022-12-13T12:49:05;29.67;;;12.38;;
71771;SDS011;59606;52.138;5.424;2022-12-13T12:52:07;28.17;;;11.52;;
71771;SDS011;59606;52.138;5.424;2022-12-13T12:54:41;18.60;;;9.30;;
71771;SDS011;59606;52.138;5.424;2022-12-13T13:06:17;29.95;;;12.43;;
71771;SDS011;59606;52.138;5.424;2022-12-13T13:11:13;30.13;;;11.73;;
71771;SDS011;59606;52.138;5.424;2022-12-13T13:16:28;32.42;;;11.32;;
71771;SDS011;59606;52.138;5.424;2022-12-13T13:21:41;32.20;;;12.60;;
71771;SDS011;59606;52.138;5.424;2022-12-13T13:26:36;31.05;;;13.70;;
71771;SDS011;59606;52.138;5.424;2022-12-13T13:31:57;27.20;;;12.07;;
71771;SDS011;59606;52.138;5.424;2022-12-13T13:34:28;31.53;;;12.93;;
71771;SDS011;59606;52.138;5.424;2022-12-13T13:42:36;32.20;;;12.85;;
71771;SDS011;59606;52.138;5.424;2022-12-13T13:45:26;32.50;;;13.75;;
71771;SDS011;59606;52.138;5.424;2022-12-13T13:48:05;36.50;;;13.70;;
71771;SDS011;59606;52.138;5.424;2022-12-13T14:02:16;26.20;;;12.10;;
71771;SDS011;59606;52.138;5.424;2022-12-13T14:10:59;29.30;;;11.15;;
71771;SDS011;59606;52.138;5.424;2022-12-13T14:17:00;28.40;;;11.43;;
71771;SDS011;59606;52.138;5.424;2022-12-13T14:22:44;28.92;;;12.38;;
71771;SDS011;59606;52.138;5.424;2022-12-13T14:25:36;29.00;;;12.80;;
71771;SDS011;59606;52.138;5.424;2022-12-13T14:30:41;33.67;;;13.77;;
71771;SDS011;59606;52.138;5.424;2022-12-13T14:33:23;33.97;;;12.45;;
71771;SDS011;59606;52.138;5.424;2022-12-13T14:35:52;26.63;;;12.80;;
71771;SDS011;59606;52.138;5.424;2022-12-13T14:38:23;30.92;;;12.90;;
71771;SDS011;59606;52.138;5.424;2022-12-13T14:40:55;29.80;;;12.68;;
71771;SDS011;59606;52.138;5.424;2022-12-13T14:43:30;32.27;;;12.07;;
71771;SDS011;59606;52.138;5.424;2022-12-13T14:45:59;28.52;;;13.43;;
71771;SDS011;59606;52.138;5.424;2022-12-13T14:48:35;32.97;;;12.57;;
71771;SDS011;59606;52.138;5.424;2022-12-13T14:51:24;33.35;;;11.73;;
71771;SDS011;59606;52.138;5.424;2022-12-13T14:53:56;31.40;;;12.48;;
71771;SDS011;59606;52.138;5.424;2022-12-13T14:56:24;33.43;;;13.63;;
71771;SDS011;59606;52.138;5.424;2022-12-13T14:58:57;37.60;;;12.90;;
71771;SDS011;59606;52.138;5.424;2022-12-13T15:01:35;29.08;;;12.82;;
71771;SDS011;59606;52.138;5.424;2022-12-13T15:04:23;28.70;;;11.90;;
71771;SDS011;59606;52.138;5.424;2022-12-13T15:06:57;32.58;;;12.18;;
71771;SDS011;59606;52.138;5.424;2022-12-13T15:09:45;31.27;;;11.30;;
71771;SDS011;59606;52.138;5.424;2022-12-13T15:12:12;26.83;;;11.77;;
71771;SDS011;59606;52.138;5.424;2022-12-13T15:19:50;31.20;;;11.85;;
71771;SDS011;59606;52.138;5.424;2022-12-13T15:22:17;27.93;;;12.33;;
71771;SDS011;59606;52.138;5.424;2022-12-13T15:24:43;32.55;;;12.32;;
71771;SDS011;59606;52.138;5.424;2022-12-13T15:27:14;28.45;;;12.38;;
71771;SDS011;59606;52.138;5.424;2022-12-13T15:29:42;28.80;;;11.77;;
71771;SDS011;59606;52.138;5.424;2022-12-13T15:32:14;31.67;;;12.52;;
71771;SDS011;59606;52.138;5.424;2022-12-13T15:34:45;29.93;;;12.03;;
71771;SDS011;59606;52.138;5.424;2022-12-13T15:39:55;31.30;;;13.20;;
71771;SDS011;59606;52.138;5.424;2022-12-13T15:42:32;32.92;;;14.35;;
71771;SDS011;59606;52.138;5.424;2022-12-13T15:45:03;29.45;;;12.27;;
71771;SDS011;59606;52.138;5.424;2022-12-13T15:47:31;35.60;;;14.73;;
71771;SDS011;59606;52.138;5.424;2022-12-13T15:49:59;45.28;;;17.73;;
71771;SDS011;59606;52.138;5.424;2022-12-13T15:52:35;47.28;;;16.48;;
71771;SDS011;59606;52.138;5.424;2022-12-13T16:00:20;46.77;;;19.50;;
71771;SDS011;59606;52.138;5.424;2022-12-13T16:03:19;51.47;;;21.42;;
71771;SDS011;59606;52.138;5.424;2022-12-13T16:05:51;48.50;;;20.23;;
71771;SDS011;59606;52.138;5.424;2022-12-13T16:08:32;38.90;;;17.00;;
71771;SDS011;59606;52.138;5.424;2022-12-13T16:11:02;47.83;;;23.85;;
71771;SDS011;59606;52.138;5.424;2022-12-13T16:13:31;35.97;;;16.50;;
71771;SDS011;59606;52.138;5.424;2022-12-13T16:16:00;28.55;;;11.90;;
71771;SDS011;59606;52.138;5.424;2022-12-13T16:18:53;28.27;;;11.55;;
71771;SDS011;59606;52.138;5.424;2022-12-13T16:21:21;27.45;;;12.45;;
71771;SDS011;59606;52.138;5.424;2022-12-13T16:23:48;26.02;;;10.15;;
71771;SDS011;59606;52.138;5.424;2022-12-13T16:26:23;26.93;;;10.43;;
71771;SDS011;59606;52.138;5.424;2022-12-13T16:28:51;30.50;;;11.05;;
71771;SDS011;59606;52.138;5.424;2022-12-13T16:33:47;30.92;;;9.82;;
71771;SDS011;59606;52.138;5.424;2022-12-13T16:36:14;22.40;;;10.60;;
71771;SDS011;59606;52.138;5.424;2022-12-13T16:38:41;34.83;;;10.87;;
71771;SDS011;59606;52.138;5.424;2022-12-13T16:41:07;24.58;;;10.35;;
71771;SDS011;59606;52.138;5.424;2022-12-13T16:43:54;25.70;;;10.70;;
71771;SDS011;59606;52.138;5.424;2022-12-13T16:46:23;26.67;;;11.25;;
71771;SDS011;59606;52.138;5.424;2022-12-13T16:49:21;37.95;;;14.15;;
71771;SDS011;59606;52.138;5.424;2022-12-13T16:51:50;25.90;;;10.80;;
71771;SDS011;59606;52.138;5.424;2022-12-13T16:54:18;25.83;;;11.02;;
71771;SDS011;59606;52.138;5.424;2022-12-13T16:56:46;33.60;;;13.85;;
71771;SDS011;59606;52.138;5.424;2022-12-13T16:59:13;31.35;;;12.90;;
71771;SDS011;59606;52.138;5.424;2022-12-13T17:01:42;39.72;;;14.35;;
71771;SDS011;59606;52.138;5.424;2022-12-13T17:04:14;33.77;;;14.87;;
71771;SDS011;59606;52.138;5.424;2022-12-13T17:06:46;40.90;;;21.55;;
71771;SDS011;59606;52.138;5.424;2022-12-13T17:09:13;35.88;;;17.50;;
71771;SDS011;59606;52.138;5.424;2022-12-13T17:11:40;57.22;;;27.70;;
71771;SDS011;59606;52.138;5.424;2022-12-13T17:14:07;45.65;;;22.02;;
71771;SDS011;59606;52.138;5.424;2022-12-13T17:16:34;37.43;;;16.80;;
71771;SDS011;59606;52.138;5.424;2022-12-13T17:19:00;33.53;;;13.65;;
71771;SDS011;59606;52.138;5.424;2022-12-13T17:21:27;32.90;;;13.30;;
71771;SDS011;59606;52.138;5.424;2022-12-13T17:23:55;34.60;;;13.15;;
71771;SDS011;59606;52.138;5.424;2022-12-13T17:26:23;35.08;;;14.10;;
71771;SDS011;59606;52.138;5.424;2022-12-13T17:28:49;29.80;;;11.33;;